createdAt,value
2019-04-23T00:01:12.259Z,4.77
2019-04-23T00:03:34.445Z,4.23
2019-04-23T00:06:08.561Z,4.40
2019-04-23T00:08:44.831Z,4.27
2019-04-23T00:11:08.677Z,4.10
2019-04-23T00:13:38.491Z,4.43
2019-04-23T00:16:18.675Z,4.00
2019-04-23T00:21:20.730Z,6.07
2019-04-23T00:24:04.012Z,4.33
2019-04-23T00:26:34.372Z,4.40
2019-04-23T00:28:58.930Z,5.07
2019-04-23T00:33:57.329Z,4.50
2019-04-23T00:36:32.135Z,4.33
2019-04-23T00:38:56.662Z,5.07
2019-04-23T00:41:33.449Z,4.67
2019-04-23T00:46:36.818Z,4.40
2019-04-23T00:49:05.843Z,3.77
2019-04-23T00:51:36.964Z,4.33
2019-04-23T00:54:06.018Z,4.23
2019-04-23T00:56:58.354Z,4.50
2019-04-23T00:59:05.398Z,3.90
2019-04-23T01:01:45.835Z,4.27
2019-04-23T01:04:10.217Z,4.70
2019-04-23T01:06:43.462Z,4.10
2019-04-23T01:09:08.191Z,4.43
2019-04-23T01:11:43.532Z,4.20
2019-04-23T01:14:13.647Z,3.97
2019-04-23T01:16:59.764Z,4.30
2019-04-23T01:21:47.457Z,3.77
2019-04-23T01:24:37.185Z,4.10
2019-04-23T01:27:51.389Z,3.80
2019-04-23T01:32:36.563Z,4.40
2019-04-23T01:35:15.367Z,4.20
2019-04-23T01:37:36.717Z,3.80
2019-04-23T01:40:11.812Z,3.97
2019-04-23T01:42:40.608Z,3.90
2019-04-23T01:45:13.339Z,3.50
2019-04-23T01:47:47.183Z,3.90
2019-04-23T01:50:14.072Z,4.90
2019-04-23T01:52:50.610Z,4.13
2019-04-23T01:55:14.965Z,3.67
2019-04-23T02:02:49.951Z,3.90
2019-04-23T02:05:24.380Z,4.20
2019-04-23T02:07:50.928Z,4.30
2019-04-23T02:10:38.052Z,4.40
2019-04-23T02:12:55.731Z,4.37
2019-04-23T02:15:23.022Z,3.90
2019-04-23T02:23:14.869Z,4.47
2019-04-23T02:25:49.050Z,3.83
2019-04-23T02:28:11.903Z,4.20
2019-04-23T02:30:57.812Z,4.47
2019-04-23T02:33:29.833Z,4.20
2019-04-23T02:35:56.192Z,4.53
2019-04-23T02:38:27.263Z,4.13
2019-04-23T02:50:43.894Z,4.77
2019-04-23T02:56:16.731Z,4.30
2019-04-23T02:58:38.662Z,4.60
2019-04-23T03:01:15.115Z,4.23
2019-04-23T03:03:35.757Z,3.97
2019-04-23T03:08:33.051Z,4.57
2019-04-23T03:11:09.809Z,4.10
2019-04-23T03:13:37.625Z,4.30
2019-04-23T03:18:53.739Z,4.03
2019-04-23T03:21:52.834Z,4.00
2019-04-23T03:29:43.437Z,4.60
2019-04-23T03:33:29.530Z,4.10
2019-04-23T03:42:16.312Z,4.10
2019-04-23T03:47:20.648Z,4.07
2019-04-23T03:49:46.361Z,4.10
2019-04-23T03:52:25.389Z,4.37
2019-04-23T03:55:03.262Z,3.83
2019-04-23T03:57:24.691Z,3.80
2019-04-23T03:59:55.101Z,4.37
2019-04-23T04:04:45.158Z,3.80
2019-04-23T04:07:27.858Z,4.07
2019-04-23T04:09:57.765Z,3.97
2019-04-23T04:14:54.414Z,4.13
2019-04-23T04:17:33.034Z,3.97
2019-04-23T04:19:56.295Z,3.90
2019-04-23T04:25:21.231Z,3.83
2019-04-23T04:27:43.351Z,4.00
2019-04-23T04:30:01.575Z,3.50
2019-04-23T04:32:31.595Z,4.33
2019-04-23T04:35:18.808Z,3.90
2019-04-23T04:40:10.868Z,3.87
2019-04-23T04:43:22.514Z,3.33
2019-04-23T04:45:30.568Z,4.30
2019-04-23T04:47:42.603Z,3.87
2019-04-23T04:52:48.796Z,3.93
2019-04-23T04:55:16.200Z,4.00
2019-04-23T04:57:41.697Z,3.97
2019-04-23T05:02:52.779Z,3.60
2019-04-23T05:05:48.450Z,3.80
2019-04-23T05:10:30.222Z,3.37
2019-04-23T05:12:56.399Z,3.50
2019-04-23T05:15:07.264Z,3.90
2019-04-23T05:20:36.739Z,3.80
2019-04-23T05:23:16.479Z,3.27
2019-04-23T05:25:31.808Z,3.60
2019-04-23T05:28:13.885Z,3.90
2019-04-23T05:33:14.138Z,3.80
2019-04-23T05:36:02.016Z,3.37
2019-04-23T05:38:22.319Z,3.80
2019-04-23T05:40:45.310Z,3.47
2019-04-23T05:43:15.840Z,3.63
2019-04-23T05:45:39.898Z,4.00
2019-04-23T05:48:19.844Z,3.80
2019-04-23T05:51:00.840Z,3.10
2019-04-23T05:53:18.404Z,3.53
2019-04-23T05:55:47.632Z,3.20
2019-04-23T05:58:22.110Z,3.73
2019-04-23T06:00:59.917Z,3.27
2019-04-23T06:03:24.874Z,3.80
2019-04-23T06:06:03.302Z,3.20
2019-04-23T06:08:32.076Z,3.63
2019-04-23T06:11:05.642Z,3.47
2019-04-23T06:13:36.570Z,3.80
2019-04-23T06:15:59.671Z,3.50
2019-04-23T06:18:38.553Z,3.30
2019-04-23T06:21:12.873Z,3.77
2019-04-23T06:23:46.384Z,3.83
2019-04-23T06:28:33.624Z,3.40
2019-04-23T06:31:06.430Z,3.53
2019-04-23T06:33:43.385Z,3.23
2019-04-23T06:36:17.052Z,3.73
2019-04-23T06:41:15.696Z,3.70
2019-04-23T06:44:00.476Z,3.90
2019-04-23T06:46:25.320Z,3.13
2019-04-23T06:48:54.856Z,3.70
2019-04-23T06:51:31.125Z,3.40
2019-04-23T06:53:59.968Z,3.80
2019-04-23T06:59:02.458Z,3.20
2019-04-23T07:01:31.072Z,3.90
2019-04-23T07:04:02.554Z,3.57
2019-04-23T07:06:31.505Z,3.87
2019-04-23T07:11:42.966Z,3.60
2019-04-23T07:16:39.940Z,3.33
2019-04-23T07:19:09.223Z,3.80
2019-04-23T07:21:54.117Z,3.90
2019-04-23T07:29:12.097Z,3.70
2019-04-23T07:31:40.904Z,3.30
2019-04-23T07:34:05.499Z,3.53
2019-04-23T07:36:44.640Z,3.37
2019-04-23T07:39:21.958Z,3.90
2019-04-23T07:42:28.032Z,3.07
2019-04-23T07:44:56.608Z,3.57
2019-04-23T07:47:45.228Z,3.30
2019-04-23T07:50:24.568Z,3.43
2019-04-23T07:52:51.550Z,3.47
2019-04-23T07:55:30.112Z,3.43
2019-04-23T07:57:54.985Z,3.20
2019-04-23T08:00:28.888Z,3.60
2019-04-23T08:03:04.215Z,3.60
2019-04-23T08:05:24.084Z,4.03
2019-04-23T08:07:55.848Z,4.03
2019-04-23T08:10:29.716Z,3.80
2019-04-23T08:13:04.253Z,3.70
2019-04-23T08:15:29.165Z,3.60
2019-04-23T08:17:59.005Z,3.70
2019-04-23T08:20:40.683Z,3.00
2019-04-23T08:23:03.771Z,3.70
2019-04-23T08:25:45.533Z,3.50
2019-04-23T08:28:25.908Z,3.80
2019-04-23T08:30:46.552Z,4.00
2019-04-23T08:33:19.180Z,3.50
2019-04-23T08:35:55.700Z,3.67
2019-04-23T08:38:26.618Z,3.67
2019-04-23T08:43:36.431Z,3.87
2019-04-23T08:46:15.554Z,3.93
2019-04-23T08:48:49.703Z,3.77
2019-04-23T08:51:31.925Z,3.80
2019-04-23T08:53:51.635Z,3.50
2019-04-23T08:56:27.489Z,3.60
2019-04-23T08:58:49.347Z,3.70
2019-04-23T09:01:16.955Z,3.40
2019-04-23T09:03:47.888Z,4.30
2019-04-23T09:06:24.462Z,4.40
2019-04-23T09:08:49.982Z,4.12
2019-04-23T09:11:41.822Z,3.67
2019-04-23T09:16:28.886Z,4.42
2019-04-23T09:19:02.621Z,4.00
2019-04-23T09:21:27.023Z,3.77
2019-04-23T09:23:56.169Z,3.30
2019-04-23T09:26:26.013Z,3.80
2019-04-23T09:29:02.566Z,3.85
2019-04-23T09:34:47.835Z,3.72
2019-04-23T09:40:18.868Z,3.95
2019-04-23T09:42:54.328Z,3.65
2019-04-23T09:48:02.401Z,3.33
2019-04-23T09:50:36.621Z,3.60
2019-04-23T09:55:39.749Z,3.77
2019-04-23T09:58:11.797Z,3.60
2019-04-23T10:00:47.004Z,3.58
2019-04-23T10:03:05.041Z,4.10
2019-04-23T10:05:30.904Z,4.12
2019-04-23T10:08:01.637Z,4.00
2019-04-23T10:10:22.730Z,4.25
2019-04-23T10:12:53.657Z,4.12
2019-04-23T10:15:28.820Z,3.70
2019-04-23T10:17:54.274Z,4.00
2019-04-23T10:20:24.807Z,3.95
2019-04-23T10:22:54.552Z,4.00
2019-04-23T10:25:24.028Z,4.60
2019-04-23T10:27:58.650Z,4.15
2019-04-23T10:30:24.472Z,4.70
2019-04-23T10:32:53.755Z,3.98
2019-04-23T10:35:35.315Z,4.83
2019-04-23T10:38:01.866Z,3.70
2019-04-23T10:40:30.260Z,3.75
2019-04-23T10:42:57.898Z,4.15
2019-04-23T10:46:10.554Z,4.05
2019-04-23T10:49:22.215Z,4.28
2019-04-23T10:51:51.622Z,3.77
2019-04-23T10:54:23.535Z,4.12
2019-04-23T10:59:30.120Z,4.15
2019-04-23T11:02:15.983Z,4.47
2019-04-23T11:07:20.867Z,4.47
2019-04-23T11:12:23.404Z,4.10
2019-04-23T11:14:52.760Z,4.30
2019-04-23T11:17:19.474Z,4.55
2019-04-23T11:19:58.231Z,3.95
2019-04-23T11:22:38.870Z,4.85
2019-04-23T11:27:24.276Z,4.30
2019-04-23T11:29:52.467Z,3.70
2019-04-23T11:32:42.894Z,3.77
2019-04-23T11:37:36.892Z,4.95
2019-04-23T11:40:01.720Z,5.47
2019-04-23T11:42:32.737Z,5.22
2019-04-23T11:44:56.663Z,5.00
2019-04-23T11:48:05.264Z,4.85
2019-04-23T11:52:36.447Z,4.70
2019-04-23T11:55:07.328Z,5.12
2019-04-23T11:57:40.777Z,5.00
2019-04-23T11:59:59.476Z,4.90
2019-04-23T12:02:49.799Z,5.28
2019-04-23T12:08:38.077Z,5.95
2019-04-23T12:14:09.592Z,5.40
2019-04-23T12:16:47.137Z,5.75
2019-04-23T12:19:33.394Z,4.55
2019-04-23T12:21:43.869Z,5.78
2019-04-23T12:24:17.157Z,5.45
2019-04-23T12:26:44.370Z,5.33
2019-04-23T12:29:20.330Z,4.62
2019-04-23T12:31:49.181Z,5.22
2019-04-23T12:34:15.043Z,4.10
2019-04-23T12:36:46.667Z,4.83
2019-04-23T12:39:27.045Z,4.12
2019-04-23T12:41:51.191Z,5.00
2019-04-23T12:44:27.002Z,4.47
2019-04-23T12:46:54.241Z,5.12
2019-04-23T12:49:44.600Z,4.53
2019-04-23T12:52:05.000Z,4.20
2019-04-23T12:54:51.721Z,4.65
2019-04-23T12:59:36.769Z,5.30
2019-04-23T13:02:33.345Z,4.83
2019-04-23T13:04:41.846Z,5.30
2019-04-23T13:07:17.511Z,5.12
2019-04-23T13:09:54.548Z,5.00
2019-04-23T13:12:29.284Z,4.97
2019-04-23T13:14:55.543Z,5.20
2019-04-23T13:17:29.727Z,5.17
2019-04-23T13:19:54.709Z,5.42
2019-04-23T13:22:23.957Z,6.28
2019-04-23T13:25:10.108Z,6.33
2019-04-23T13:33:01.129Z,5.55
2019-04-23T13:37:59.411Z,5.12
2019-04-23T13:40:36.489Z,5.90
2019-04-23T13:43:27.110Z,6.83
2019-04-23T13:48:06.082Z,6.62
2019-04-23T13:53:31.636Z,5.20
2019-04-23T13:55:27.917Z,6.28
2019-04-23T14:00:44.778Z,7.15
2019-04-23T14:03:03.212Z,6.80
2019-04-23T14:06:00.960Z,6.35
2019-04-23T14:08:41.614Z,7.00
2019-04-23T14:10:53.246Z,6.03
2019-04-23T14:13:50.857Z,6.97
2019-04-23T14:16:04.658Z,6.20
2019-04-23T14:18:51.673Z,7.25
2019-04-23T14:21:05.859Z,6.50
2019-04-23T14:23:54.129Z,6.78
2019-04-23T14:31:04.785Z,6.53
2019-04-23T14:33:51.215Z,5.87
2019-04-23T14:36:10.928Z,6.55
2019-04-23T14:41:21.799Z,6.45
2019-04-23T14:43:48.743Z,6.33
2019-04-23T14:51:24.167Z,5.30
2019-04-23T14:53:43.891Z,5.75
2019-04-23T14:56:22.550Z,5.15
2019-04-23T14:58:57.455Z,5.83
2019-04-23T15:01:27.367Z,5.55
2019-04-23T15:08:59.194Z,6.22
2019-04-23T15:11:29.412Z,6.25
2019-04-23T15:13:55.391Z,6.87
2019-04-23T15:21:55.492Z,6.75
2019-04-23T15:24:25.104Z,6.72
2019-04-23T15:29:06.060Z,7.20
2019-04-23T15:31:59.242Z,6.70
2019-04-23T15:34:17.674Z,5.70
2019-04-23T15:37:15.565Z,5.17
2019-04-23T15:39:32.205Z,5.83
2019-04-23T15:44:16.127Z,6.65
2019-04-23T15:49:31.618Z,5.80
2019-04-23T15:52:17.066Z,6.70
2019-04-23T15:54:35.720Z,7.35
2019-04-23T15:57:02.480Z,6.65
2019-04-23T15:59:34.663Z,6.08
2019-04-23T16:01:42.618Z,6.50
2019-04-23T16:04:06.096Z,7.17
2019-04-23T16:06:38.517Z,7.97
2019-04-23T16:09:28.078Z,6.97
2019-04-23T16:11:59.645Z,7.50
2019-04-23T16:14:50.354Z,7.40
2019-04-23T16:17:13.806Z,7.12
2019-04-23T16:22:36.636Z,6.00
2019-04-23T16:27:38.006Z,6.12
2019-04-23T16:33:11.287Z,6.42
2019-04-23T16:36:01.928Z,6.22
2019-04-23T16:38:32.513Z,6.12
2019-04-23T16:40:47.637Z,6.28
2019-04-23T16:43:40.397Z,5.55
2019-04-23T16:46:03.115Z,5.72
2019-04-23T16:48:46.470Z,6.28
2019-04-23T16:53:37.366Z,5.58
2019-04-23T16:56:18.539Z,5.92
2019-04-23T17:03:31.234Z,5.75
2019-04-23T17:06:15.671Z,6.28
2019-04-23T17:08:52.892Z,5.50
2019-04-23T17:11:08.942Z,5.87
2019-04-23T17:16:15.284Z,6.03
2019-04-23T17:18:41.108Z,5.85
2019-04-23T17:21:11.821Z,6.97
2019-04-23T17:26:23.949Z,6.53
2019-04-23T17:28:44.440Z,6.67
2019-04-23T17:33:54.603Z,6.15
2019-04-23T17:39:10.640Z,6.58
2019-04-23T17:42:05.440Z,6.03
2019-04-23T17:44:38.611Z,6.10
2019-04-23T17:47:08.700Z,7.30
2019-04-23T17:49:44.574Z,5.55
2019-04-23T17:52:17.038Z,6.53
2019-04-23T17:54:42.292Z,5.83
2019-04-23T18:00:04.875Z,5.87
2019-04-23T18:05:04.111Z,6.12
2019-04-23T18:07:39.182Z,6.40
2019-04-23T18:12:38.992Z,6.10
2019-04-23T18:15:03.390Z,6.30
2019-04-23T18:20:24.787Z,7.25
2019-04-23T18:23:04.791Z,5.80
2019-04-23T18:25:30.776Z,5.30
2019-04-23T18:31:06.207Z,5.22
2019-04-23T18:34:05.314Z,5.47
2019-04-23T18:36:14.837Z,5.33
2019-04-23T18:38:52.693Z,5.47
2019-04-23T18:41:10.717Z,5.60
2019-04-23T18:43:55.139Z,5.50
2019-04-23T18:48:53.328Z,5.70
2019-04-23T18:51:21.375Z,5.45
2019-04-23T18:54:08.175Z,6.17
2019-04-23T18:56:31.155Z,6.03
2019-04-23T18:59:11.015Z,6.17
2019-04-23T19:01:30.980Z,6.60
2019-04-23T19:07:05.251Z,5.58
2019-04-23T19:15:33.304Z,5.50
2019-04-23T19:17:56.625Z,5.97
2019-04-23T19:20:38.292Z,5.80
2019-04-23T19:25:22.872Z,5.80
2019-04-23T19:27:52.121Z,5.90
2019-04-23T19:30:43.119Z,5.78
2019-04-23T19:33:13.685Z,5.62
2019-04-23T19:38:13.585Z,6.20
2019-04-23T19:40:51.891Z,5.65
2019-04-23T19:43:19.420Z,5.72
2019-04-23T19:45:55.748Z,6.00
2019-04-23T19:53:32.208Z,6.03
2019-04-23T19:56:04.349Z,5.83
2019-04-23T19:58:32.453Z,6.60
2019-04-23T20:01:13.754Z,6.27
2019-04-23T20:06:02.948Z,6.17
2019-04-23T20:08:46.410Z,6.23
2019-04-23T20:11:04.515Z,6.70
2019-04-23T20:13:41.151Z,6.10
2019-04-23T20:16:10.575Z,5.50
2019-04-23T20:18:47.808Z,5.80
2019-04-23T20:20:58.981Z,6.67
2019-04-23T20:24:02.146Z,6.80
2019-04-23T20:36:53.201Z,7.33
2019-04-23T20:39:30.333Z,6.97
2019-04-23T20:44:39.429Z,7.07
2019-04-23T20:47:06.296Z,7.15
2019-04-23T20:49:40.751Z,7.57
2019-04-23T20:52:04.727Z,7.87
2019-04-23T20:54:43.188Z,7.30
2019-04-23T20:57:31.637Z,6.57
2019-04-23T21:05:09.839Z,6.93
2019-04-23T21:07:49.121Z,7.47
2019-04-23T21:17:56.203Z,8.50
2019-04-23T21:20:19.679Z,7.90
2019-04-23T21:22:41.172Z,7.70
2019-04-23T21:25:11.856Z,8.30
2019-04-23T21:27:55.427Z,8.30
2019-04-23T21:30:43.603Z,8.87
2019-04-23T21:33:07.371Z,8.93
2019-04-23T21:36:13.723Z,9.10
2019-04-23T21:46:47.662Z,9.27
2019-04-23T21:51:51.611Z,9.63
2019-04-23T21:54:08.009Z,9.20
2019-04-23T21:56:48.347Z,9.50
2019-04-23T22:02:03.626Z,8.77
2019-04-23T22:04:25.676Z,9.40
2019-04-23T22:09:26.941Z,9.10
2019-04-23T22:12:03.550Z,9.13
2019-04-23T22:14:27.482Z,9.20
2019-04-23T22:17:03.308Z,9.43
2019-04-23T22:19:52.742Z,9.07
2019-04-23T22:21:57.508Z,9.27
2019-04-23T22:24:27.278Z,9.23
2019-04-23T22:26:57.628Z,9.97
2019-04-23T22:29:36.892Z,9.73
2019-04-23T22:31:53.786Z,10.40
2019-04-23T22:37:11.184Z,9.00
2019-04-23T22:39:39.947Z,9.47
2019-04-23T22:42:22.024Z,9.60
2019-04-23T22:44:56.155Z,9.37
2019-04-23T22:47:30.003Z,9.47
2019-04-23T22:49:55.347Z,9.53
2019-04-23T22:52:23.026Z,9.53
2019-04-23T22:54:57.370Z,9.57
2019-04-23T22:57:11.604Z,9.57
2019-04-23T23:00:02.407Z,10.37
2019-04-23T23:02:44.366Z,9.60
2019-04-23T23:07:48.939Z,9.23
2019-04-23T23:15:37.207Z,9.50
2019-04-23T23:17:50.595Z,8.90
2019-04-23T23:20:20.880Z,9.90
2019-04-23T23:22:59.122Z,9.37
2019-04-23T23:25:19.112Z,9.97
2019-04-23T23:27:52.094Z,9.20
2019-04-23T23:32:49.112Z,9.17
2019-04-23T23:35:24.312Z,9.53
2019-04-23T23:37:55.942Z,9.43
2019-04-23T23:40:21.868Z,9.20
2019-04-23T23:43:08.827Z,9.43
2019-04-23T23:47:58.642Z,9.33
2019-04-23T23:50:25.482Z,9.50
2019-04-23T23:53:11.955Z,9.10
2019-04-23T23:58:06.436Z,9.80
